Nineteen, Kentucky
Current Conditions -  °F | °C
As of 6:35 AM on Thursday 29 Jan 2015 (Local Time) from K2I0 Reporting Station
Clear Clear  
Wind Chill: 53°   Ceiling: Unl
Heat Index: 53°   Visibility: 10mi
Dew Point: 37°   Wind: 17mph
Humidity: 55%   Direction: 220°SW
Pressure: 29.91"   Gusts: 24mph
Location:  37.3559°N, 86.8747°W
Report Text: K2I0 291235Z AUTO 22015G21KT 10SM CLR 12/03 A2991 RMK AO2 T01160027
Loading
Personal Weather Stations






























Interactive Weather Map New forecast layout! Learn more

10-Day Weather Forecast

Advertisements
Track Severe Weather on mobile